sensor_id;sensor_type;location;lat;lon;timestamp;pressure;altitude;pressure_sealevel;temperature
65823;BMP180;52585;47.566;19.056;2022-08-18T00:01:53;99957.40;;;25.20
65823;BMP180;52585;47.566;19.056;2022-08-18T00:04:22;99962.40;;;25.10
65823;BMP180;52585;47.566;19.056;2022-08-18T00:06:47;99956.60;;;25.10
65823;BMP180;52585;47.566;19.056;2022-08-18T00:09:13;99952.20;;;25.10
65823;BMP180;52585;47.566;19.056;2022-08-18T00:11:42;99944.40;;;25.08
65823;BMP180;52585;47.566;19.056;2022-08-18T00:14:18;99945.60;;;25.00
65823;BMP180;52585;47.566;19.056;2022-08-18T00:16:44;99941.00;;;25.00
65823;BMP180;52585;47.566;19.056;2022-08-18T00:19:10;99934.00;;;25.00
65823;BMP180;52585;47.566;19.056;2022-08-18T00:21:36;99934.80;;;25.00
65823;BMP180;52585;47.566;19.056;2022-08-18T00:24:02;99938.40;;;25.00
65823;BMP180;52585;47.566;19.056;2022-08-18T00:26:27;99938.00;;;24.90
65823;BMP180;52585;47.566;19.056;2022-08-18T00:28:53;99930.40;;;24.90
65823;BMP180;52585;47.566;19.056;2022-08-18T00:31:19;99935.40;;;24.90
65823;BMP180;52585;47.566;19.056;2022-08-18T00:33:44;99935.00;;;24.80
65823;BMP180;52585;47.566;19.056;2022-08-18T00:36:11;99935.00;;;24.80
65823;BMP180;52585;47.566;19.056;2022-08-18T00:38:38;99933.80;;;24.80
65823;BMP180;52585;47.566;19.056;2022-08-18T00:41:05;99928.60;;;24.80
65823;BMP180;52585;47.566;19.056;2022-08-18T00:43:45;99933.00;;;24.72
65823;BMP180;52585;47.566;19.056;2022-08-18T00:46:19;99938.00;;;24.70
65823;BMP180;52585;47.566;19.056;2022-08-18T00:48:46;99936.40;;;24.70
65823;BMP180;52585;47.566;19.056;2022-08-18T00:54:02;99939.20;;;24.70
65823;BMP180;52585;47.566;19.056;2022-08-18T00:56:37;99943.00;;;24.70
65823;BMP180;52585;47.566;19.056;2022-08-18T01:01:38;99938.80;;;24.60
65823;BMP180;52585;47.566;19.056;2022-08-18T01:04:15;99942.40;;;24.60
65823;BMP180;52585;47.566;19.056;2022-08-18T01:06:55;99948.60;;;24.58
65823;BMP180;52585;47.566;19.056;2022-08-18T01:09:23;99947.20;;;24.50
65823;BMP180;52585;47.566;19.056;2022-08-18T01:11:49;99947.00;;;24.50
65823;BMP180;52585;47.566;19.056;2022-08-18T01:14:17;99940.20;;;24.50
65823;BMP180;52585;47.566;19.056;2022-08-18T01:16:46;99945.80;;;24.50
65823;BMP180;52585;47.566;19.056;2022-08-18T01:19:32;99944.40;;;24.50
65823;BMP180;52585;47.566;19.056;2022-08-18T01:22:28;99941.00;;;24.48
65823;BMP180;52585;47.566;19.056;2022-08-18T01:25:00;99941.60;;;24.40
65823;BMP180;52585;47.566;19.056;2022-08-18T01:27:50;99947.00;;;24.40
65823;BMP180;52585;47.566;19.056;2022-08-18T01:30:17;99950.60;;;24.40
65823;BMP180;52585;47.566;19.056;2022-08-18T01:32:44;99954.20;;;24.40
65823;BMP180;52585;47.566;19.056;2022-08-18T01:35:15;99953.80;;;24.34
65823;BMP180;52585;47.566;19.056;2022-08-18T01:37:42;99957.20;;;24.30
65823;BMP180;52585;47.566;19.056;2022-08-18T01:40:10;99953.20;;;24.30
65823;BMP180;52585;47.566;19.056;2022-08-18T01:42:37;99960.60;;;24.30
65823;BMP180;52585;47.566;19.056;2022-08-18T01:45:06;99962.40;;;24.30
65823;BMP180;52585;47.566;19.056;2022-08-18T01:47:34;99966.00;;;24.28
65823;BMP180;52585;47.566;19.056;2022-08-18T01:50:01;99966.60;;;24.20
65823;BMP180;52585;47.566;19.056;2022-08-18T01:52:27;99967.60;;;24.20
65823;BMP180;52585;47.566;19.056;2022-08-18T01:54:55;99970.60;;;24.20
65823;BMP180;52585;47.566;19.056;2022-08-18T01:57:24;99971.00;;;24.20
65823;BMP180;52585;47.566;19.056;2022-08-18T01:59:50;99965.80;;;24.20
65823;BMP180;52585;47.566;19.056;2022-08-18T02:02:22;99966.80;;;24.16
65823;BMP180;52585;47.566;19.056;2022-08-18T02:04:54;99966.40;;;24.10
65823;BMP180;52585;47.566;19.056;2022-08-18T02:07:22;99964.00;;;24.10
65823;BMP180;52585;47.566;19.056;2022-08-18T02:09:47;99971.80;;;24.10
65823;BMP180;52585;47.566;19.056;2022-08-18T02:12:13;99969.80;;;24.10
65823;BMP180;52585;47.566;19.056;2022-08-18T02:14:39;99963.20;;;24.10
65823;BMP180;52585;47.566;19.056;2022-08-18T02:17:08;99967.00;;;24.04
65823;BMP180;52585;47.566;19.056;2022-08-18T02:19:41;99972.60;;;24.00
65823;BMP180;52585;47.566;19.056;2022-08-18T02:22:11;99961.40;;;24.00
65823;BMP180;52585;47.566;19.056;2022-08-18T02:24:37;99956.80;;;24.00
65823;BMP180;52585;47.566;19.056;2022-08-18T02:27:04;99959.00;;;24.00
65823;BMP180;52585;47.566;19.056;2022-08-18T02:29:30;99954.20;;;23.98
65823;BMP180;52585;47.566;19.056;2022-08-18T02:31:55;99951.40;;;23.92
65823;BMP180;52585;47.566;19.056;2022-08-18T02:34:21;99960.00;;;23.90
65823;BMP180;52585;47.566;19.056;2022-08-18T02:36:47;99969.00;;;23.90
65823;BMP180;52585;47.566;19.056;2022-08-18T02:39:13;99973.80;;;23.90
65823;BMP180;52585;47.566;19.056;2022-08-18T02:41:39;99971.80;;;23.90
65823;BMP180;52585;47.566;19.056;2022-08-18T02:44:06;99979.20;;;23.86
65823;BMP180;52585;47.566;19.056;2022-08-18T02:46:33;99974.80;;;23.80
65823;BMP180;52585;47.566;19.056;2022-08-18T02:48:59;99973.40;;;23.80
65823;BMP180;52585;47.566;19.056;2022-08-18T02:51:26;99981.40;;;23.80
65823;BMP180;52585;47.566;19.056;2022-08-18T02:53:53;99980.80;;;23.80
65823;BMP180;52585;47.566;19.056;2022-08-18T02:56:24;99975.40;;;23.70
65823;BMP180;52585;47.566;19.056;2022-08-18T02:59:01;99982.60;;;23.70
65823;BMP180;52585;47.566;19.056;2022-08-18T03:01:37;99981.40;;;23.70
65823;BMP180;52585;47.566;19.056;2022-08-18T03:04:07;99982.80;;;23.70
65823;BMP180;52585;47.566;19.056;2022-08-18T03:06:36;99986.00;;;23.66
65823;BMP180;52585;47.566;19.056;2022-08-18T03:09:04;99989.80;;;23.60
65823;BMP180;52585;47.566;19.056;2022-08-18T03:11:30;99983.60;;;23.60
65823;BMP180;52585;47.566;19.056;2022-08-18T03:13:56;99985.80;;;23.60
65823;BMP180;52585;47.566;19.056;2022-08-18T03:16:23;99984.40;;;23.60
65823;BMP180;52585;47.566;19.056;2022-08-18T03:18:50;99986.40;;;23.54
65823;BMP180;52585;47.566;19.056;2022-08-18T03:21:22;99986.40;;;23.50
65823;BMP180;52585;47.566;19.056;2022-08-18T03:23:51;99991.60;;;23.50
65823;BMP180;52585;47.566;19.056;2022-08-18T03:26:19;99996.80;;;23.50
65823;BMP180;52585;47.566;19.056;2022-08-18T03:28:48;100005.60;;;23.50
65823;BMP180;52585;47.566;19.056;2022-08-18T03:31:16;100006.20;;;23.50
65823;BMP180;52585;47.566;19.056;2022-08-18T03:33:43;100005.60;;;23.40
65823;BMP180;52585;47.566;19.056;2022-08-18T03:36:23;100008.00;;;23.40
65823;BMP180;52585;47.566;19.056;2022-08-18T03:38:51;100007.80;;;23.40
65823;BMP180;52585;47.566;19.056;2022-08-18T03:41:22;100015.00;;;23.40
65823;BMP180;52585;47.566;19.056;2022-08-18T03:43:50;100019.80;;;23.40
65823;BMP180;52585;47.566;19.056;2022-08-18T03:46:18;100023.20;;;23.40
65823;BMP180;52585;47.566;19.056;2022-08-18T03:48:45;100024.20;;;23.38
65823;BMP180;52585;47.566;19.056;2022-08-18T03:51:17;100022.60;;;23.30
65823;BMP180;52585;47.566;19.056;2022-08-18T03:53:45;100016.80;;;23.30
65823;BMP180;52585;47.566;19.056;2022-08-18T03:56:17;100009.80;;;23.30
65823;BMP180;52585;47.566;19.056;2022-08-18T03:58:47;99995.20;;;23.30
65823;BMP180;52585;47.566;19.056;2022-08-18T04:01:24;99986.60;;;23.30
65823;BMP180;52585;47.566;19.056;2022-08-18T04:03:56;99987.80;;;23.28
65823;BMP180;52585;47.566;19.056;2022-08-18T04:06:30;99997.00;;;23.30
65823;BMP180;52585;47.566;19.056;2022-08-18T04:09:00;100001.20;;;23.30
65823;BMP180;52585;47.566;19.056;2022-08-18T04:11:26;100006.60;;;23.30
65823;BMP180;52585;47.566;19.056;2022-08-18T04:13:55;100009.40;;;23.30
65823;BMP180;52585;47.566;19.056;2022-08-18T04:16:25;100001.60;;;23.30
65823;BMP180;52585;47.566;19.056;2022-08-18T04:18:51;99999.00;;;23.28
65823;BMP180;52585;47.566;19.056;2022-08-18T04:21:17;100003.00;;;23.30
65823;BMP180;52585;47.566;19.056;2022-08-18T04:23:43;100005.40;;;23.28
65823;BMP180;52585;47.566;19.056;2022-08-18T04:26:10;100010.80;;;23.28
65823;BMP180;52585;47.566;19.056;2022-08-18T04:28:37;100008.60;;;23.30
65823;BMP180;52585;47.566;19.056;2022-08-18T04:31:13;100008.40;;;23.30
65823;BMP180;52585;47.566;19.056;2022-08-18T04:33:40;100004.20;;;23.28
65823;BMP180;52585;47.566;19.056;2022-08-18T04:36:12;100011.20;;;23.28
65823;BMP180;52585;47.566;19.056;2022-08-18T04:38:39;100011.20;;;23.26
65823;BMP180;52585;47.566;19.056;2022-08-18T04:41:08;100013.60;;;23.24
65823;BMP180;52585;47.566;19.056;2022-08-18T04:43:35;100013.80;;;23.28
65823;BMP180;52585;47.566;19.056;2022-08-18T04:46:00;100011.80;;;23.28
65823;BMP180;52585;47.566;19.056;2022-08-18T04:48:53;100011.00;;;23.30
65823;BMP180;52585;47.566;19.056;2022-08-18T04:51:29;100008.20;;;23.30
65823;BMP180;52585;47.566;19.056;2022-08-18T04:54:09;100009.60;;;23.30
65823;BMP180;52585;47.566;19.056;2022-08-18T04:56:38;100008.80;;;23.30
65823;BMP180;52585;47.566;19.056;2022-08-18T04:59:11;100006.40;;;23.30
65823;BMP180;52585;47.566;19.056;2022-08-18T05:01:45;100011.00;;;23.34
65823;BMP180;52585;47.566;19.056;2022-08-18T05:04:15;100018.20;;;23.40
65823;BMP180;52585;47.566;19.056;2022-08-18T05:06:43;100015.60;;;23.40
65823;BMP180;52585;47.566;19.056;2022-08-18T05:09:13;100005.20;;;23.40
65823;BMP180;52585;47.566;19.056;2022-08-18T05:11:40;100005.40;;;23.40
65823;BMP180;52585;47.566;19.056;2022-08-18T05:14:08;100000.00;;;23.50
65823;BMP180;52585;47.566;19.056;2022-08-18T05:16:36;100000.00;;;23.50
65823;BMP180;52585;47.566;19.056;2022-08-18T05:19:05;100000.60;;;23.50
65823;BMP180;52585;47.566;19.056;2022-08-18T05:21:31;99996.20;;;23.50
65823;BMP180;52585;47.566;19.056;2022-08-18T05:23:59;99994.80;;;23.60
65823;BMP180;52585;47.566;19.056;2022-08-18T05:26:26;100000.20;;;23.60
65823;BMP180;52585;47.566;19.056;2022-08-18T05:28:53;99996.60;;;23.60
65823;BMP180;52585;47.566;19.056;2022-08-18T05:31:23;100002.00;;;23.70
65823;BMP180;52585;47.566;19.056;2022-08-18T05:33:51;99999.00;;;23.70
65823;BMP180;52585;47.566;19.056;2022-08-18T05:45:12;100005.40;;;23.90
65823;BMP180;52585;47.566;19.056;2022-08-18T05:47:39;100007.20;;;23.90
65823;BMP180;52585;47.566;19.056;2022-08-18T05:50:09;100007.40;;;24.00
65823;BMP180;52585;47.566;19.056;2022-08-18T05:53:08;100013.20;;;24.00
65823;BMP180;52585;47.566;19.056;2022-08-18T05:55:57;100010.40;;;24.10
65823;BMP180;52585;47.566;19.056;2022-08-18T05:58:50;100014.40;;;24.10
65823;BMP180;52585;47.566;19.056;2022-08-18T06:01:27;100006.80;;;24.20
65823;BMP180;52585;47.566;19.056;2022-08-18T06:04:05;100011.00;;;24.20
65823;BMP180;52585;47.566;19.056;2022-08-18T06:06:35;100006.20;;;24.30
65823;BMP180;52585;47.566;19.056;2022-08-18T06:09:31;100007.80;;;24.30
65823;BMP180;52585;47.566;19.056;2022-08-18T06:12:19;100010.60;;;24.40
65823;BMP180;52585;47.566;19.056;2022-08-18T06:14:48;100015.00;;;24.40
65823;BMP180;52585;47.566;19.056;2022-08-18T06:26:16;100023.60;;;24.70
65823;BMP180;52585;47.566;19.056;2022-08-18T06:38:32;100018.40;;;25.00
65823;BMP180;52585;47.566;19.056;2022-08-18T06:41:35;100017.40;;;25.00
65823;BMP180;52585;47.566;19.056;2022-08-18T06:44:06;100017.80;;;25.08
65823;BMP180;52585;47.566;19.056;2022-08-18T06:46:53;100019.40;;;25.10
65823;BMP180;52585;47.566;19.056;2022-08-18T06:49:55;100019.60;;;25.16
65823;BMP180;52585;47.566;19.056;2022-08-18T06:52:31;100022.60;;;25.20
65823;BMP180;52585;47.566;19.056;2022-08-18T06:55:17;100016.60;;;25.28
65823;BMP180;52585;47.566;19.056;2022-08-18T06:58:00;100017.20;;;25.30
65823;BMP180;52585;47.566;19.056;2022-08-18T07:00:30;100015.40;;;25.34
65823;BMP180;52585;47.566;19.056;2022-08-18T07:03:12;100016.40;;;25.40
65823;BMP180;52585;47.566;19.056;2022-08-18T07:11:31;100000.20;;;25.50
65823;BMP180;52585;47.566;19.056;2022-08-18T07:14:19;99995.60;;;25.60
65823;BMP180;52585;47.566;19.056;2022-08-18T07:16:47;99997.00;;;25.70
65823;BMP180;52585;47.566;19.056;2022-08-18T07:19:18;99993.00;;;25.70
65823;BMP180;52585;47.566;19.056;2022-08-18T07:22:07;99987.40;;;25.80
65823;BMP180;52585;47.566;19.056;2022-08-18T07:27:18;99989.00;;;25.90
65823;BMP180;52585;47.566;19.056;2022-08-18T07:30:31;99995.40;;;25.92
65823;BMP180;52585;47.566;19.056;2022-08-18T07:33:11;99997.80;;;26.00
65823;BMP180;52585;47.566;19.056;2022-08-18T07:36:02;99997.60;;;26.10
65823;BMP180;52585;47.566;19.056;2022-08-18T07:38:37;99989.00;;;26.16
65823;BMP180;52585;47.566;19.056;2022-08-18T07:41:43;99987.40;;;26.20
65823;BMP180;52585;47.566;19.056;2022-08-18T07:47:17;99989.40;;;26.40
65823;BMP180;52585;47.566;19.056;2022-08-18T07:49:46;99996.80;;;26.50
65823;BMP180;52585;47.566;19.056;2022-08-18T07:52:39;99996.20;;;26.52
65823;BMP180;52585;47.566;19.056;2022-08-18T07:55:31;100000.80;;;26.62
65823;BMP180;52585;47.566;19.056;2022-08-18T08:01:20;99997.80;;;26.80
65823;BMP180;52585;47.566;19.056;2022-08-18T08:04:19;99999.20;;;26.90
65823;BMP180;52585;47.566;19.056;2022-08-18T08:07:04;100011.80;;;26.90
65823;BMP180;52585;47.566;19.056;2022-08-18T08:27:49;100032.40;;;27.50
65823;BMP180;52585;47.566;19.056;2022-08-18T08:30:24;100035.80;;;27.50
65823;BMP180;52585;47.566;19.056;2022-08-18T08:36:28;100029.60;;;27.60
65823;BMP180;52585;47.566;19.056;2022-08-18T08:39:44;100029.00;;;27.70
65823;BMP180;52585;47.566;19.056;2022-08-18T08:42:19;100022.40;;;27.72
65823;BMP180;52585;47.566;19.056;2022-08-18T08:44:57;100025.20;;;27.80
65823;BMP180;52585;47.566;19.056;2022-08-18T08:47:35;100020.40;;;27.90
65823;BMP180;52585;47.566;19.056;2022-08-18T08:50:14;100021.20;;;28.00
65823;BMP180;52585;47.566;19.056;2022-08-18T08:53:13;100016.00;;;28.10
65823;BMP180;52585;47.566;19.056;2022-08-18T08:55:47;100010.60;;;28.10
65823;BMP180;52585;47.566;19.056;2022-08-18T08:58:25;100007.00;;;28.20
65823;BMP180;52585;47.566;19.056;2022-08-18T09:00:53;100004.00;;;28.10
65823;BMP180;52585;47.566;19.056;2022-08-18T09:03:47;99999.40;;;28.10
65823;BMP180;52585;47.566;19.056;2022-08-18T09:17:51;99991.80;;;28.00
65823;BMP180;52585;47.566;19.056;2022-08-18T09:20:52;99984.40;;;28.04
65823;BMP180;52585;47.566;19.056;2022-08-18T09:23:26;99982.60;;;28.00
65823;BMP180;52585;47.566;19.056;2022-08-18T09:25:59;99981.20;;;28.00
65823;BMP180;52585;47.566;19.056;2022-08-18T09:28:58;99969.80;;;28.02
65823;BMP180;52585;47.566;19.056;2022-08-18T09:31:27;99966.20;;;28.08
65823;BMP180;52585;47.566;19.056;2022-08-18T09:34:33;99972.40;;;28.10
65823;BMP180;52585;47.566;19.056;2022-08-18T09:37:19;99970.20;;;28.10
65823;BMP180;52585;47.566;19.056;2022-08-18T09:42:55;99961.80;;;28.22
65823;BMP180;52585;47.566;19.056;2022-08-18T09:50:53;99964.40;;;28.70
65823;BMP180;52585;47.566;19.056;2022-08-18T09:53:53;99962.00;;;28.80
65823;BMP180;52585;47.566;19.056;2022-08-18T10:10:52;99919.60;;;29.46
65823;BMP180;52585;47.566;19.056;2022-08-18T10:14:22;99918.60;;;29.50
65823;BMP180;52585;47.566;19.056;2022-08-18T10:17:38;99919.20;;;29.60
65823;BMP180;52585;47.566;19.056;2022-08-18T10:23:00;99910.00;;;29.70
65823;BMP180;52585;47.566;19.056;2022-08-18T10:28:01;99911.60;;;29.90
65823;BMP180;52585;47.566;19.056;2022-08-18T10:33:06;99911.60;;;30.00
65823;BMP180;52585;47.566;19.056;2022-08-18T10:41:11;99913.00;;;30.10
65823;BMP180;52585;47.566;19.056;2022-08-18T10:43:45;99916.40;;;30.20
65823;BMP180;52585;47.566;19.056;2022-08-18T10:46:33;99918.40;;;30.20
65823;BMP180;52585;47.566;19.056;2022-08-18T10:49:22;99912.20;;;30.30
65823;BMP180;52585;47.566;19.056;2022-08-18T11:03:44;99895.80;;;30.60
65823;BMP180;52585;47.566;19.056;2022-08-18T11:06:22;99891.80;;;30.70
65823;BMP180;52585;47.566;19.056;2022-08-18T11:08:56;99891.00;;;30.70
65823;BMP180;52585;47.566;19.056;2022-08-18T11:11:33;99892.00;;;30.70
65823;BMP180;52585;47.566;19.056;2022-08-18T11:17:06;99893.00;;;30.80
65823;BMP180;52585;47.566;19.056;2022-08-18T11:19:42;99884.60;;;30.90
65823;BMP180;52585;47.566;19.056;2022-08-18T11:22:30;99892.00;;;30.90
65823;BMP180;52585;47.566;19.056;2022-08-18T11:24:57;99887.20;;;30.92
65823;BMP180;52585;47.566;19.056;2022-08-18T11:27:34;99877.00;;;30.96
65823;BMP180;52585;47.566;19.056;2022-08-18T11:30:03;99876.80;;;30.92
65823;BMP180;52585;47.566;19.056;2022-08-18T11:32:37;99871.20;;;30.86
65823;BMP180;52585;47.566;19.056;2022-08-18T11:45:51;99852.20;;;30.40
65823;BMP180;52585;47.566;19.056;2022-08-18T11:58:54;99838.20;;;30.70
65823;BMP180;52585;47.566;19.056;2022-08-18T12:12:04;99817.60;;;30.90
65823;BMP180;52585;47.566;19.056;2022-08-18T12:17:19;99818.40;;;30.90
65823;BMP180;52585;47.566;19.056;2022-08-18T12:19:44;99807.40;;;30.90
65823;BMP180;52585;47.566;19.056;2022-08-18T12:22:21;99804.20;;;31.00
65823;BMP180;52585;47.566;19.056;2022-08-18T12:24:48;99806.40;;;31.00
65823;BMP180;52585;47.566;19.056;2022-08-18T12:27:20;99806.20;;;31.00
65823;BMP180;52585;47.566;19.056;2022-08-18T12:29:46;99801.00;;;31.00
65823;BMP180;52585;47.566;19.056;2022-08-18T12:32:12;99792.60;;;31.00
65823;BMP180;52585;47.566;19.056;2022-08-18T12:34:38;99783.20;;;31.10
65823;BMP180;52585;47.566;19.056;2022-08-18T12:37:08;99778.20;;;31.10
65823;BMP180;52585;47.566;19.056;2022-08-18T12:39:36;99781.80;;;31.20
65823;BMP180;52585;47.566;19.056;2022-08-18T12:42:03;99776.80;;;31.20
65823;BMP180;52585;47.566;19.056;2022-08-18T12:44:28;99780.00;;;31.12
65823;BMP180;52585;47.566;19.056;2022-08-18T12:46:54;99775.40;;;31.12
65823;BMP180;52585;47.566;19.056;2022-08-18T12:49:23;99782.40;;;31.20
65823;BMP180;52585;47.566;19.056;2022-08-18T12:52:08;99788.40;;;31.20
65823;BMP180;52585;47.566;19.056;2022-08-18T12:54:40;99792.60;;;31.20
65823;BMP180;52585;47.566;19.056;2022-08-18T12:57:18;99801.00;;;31.30
65823;BMP180;52585;47.566;19.056;2022-08-18T12:59:44;99797.20;;;31.30
65823;BMP180;52585;47.566;19.056;2022-08-18T13:02:10;99804.40;;;31.38
65823;BMP180;52585;47.566;19.056;2022-08-18T13:04:36;99810.60;;;31.40
65823;BMP180;52585;47.566;19.056;2022-08-18T13:07:03;99810.60;;;31.40
65823;BMP180;52585;47.566;19.056;2022-08-18T13:09:32;99806.00;;;31.40
65823;BMP180;52585;47.566;19.056;2022-08-18T13:11:58;99801.20;;;31.50
65823;BMP180;52585;47.566;19.056;2022-08-18T13:14:24;99808.20;;;31.50
65823;BMP180;52585;47.566;19.056;2022-08-18T13:16:49;99813.80;;;31.50
65823;BMP180;52585;47.566;19.056;2022-08-18T13:19:16;99817.00;;;31.50
65823;BMP180;52585;47.566;19.056;2022-08-18T13:21:42;99818.80;;;31.50
65823;BMP180;52585;47.566;19.056;2022-08-18T13:24:08;99815.20;;;31.50
65823;BMP180;52585;47.566;19.056;2022-08-18T13:26:43;99814.00;;;31.50
65823;BMP180;52585;47.566;19.056;2022-08-18T13:29:09;99812.00;;;31.42
65823;BMP180;52585;47.566;19.056;2022-08-18T13:31:35;99821.20;;;31.46
65823;BMP180;52585;47.566;19.056;2022-08-18T13:34:03;99824.20;;;31.50
65823;BMP180;52585;47.566;19.056;2022-08-18T13:36:32;99822.60;;;31.50
65823;BMP180;52585;47.566;19.056;2022-08-18T13:39:21;99815.60;;;31.50
65823;BMP180;52585;47.566;19.056;2022-08-18T13:41:51;99810.00;;;31.50
65823;BMP180;52585;47.566;19.056;2022-08-18T13:44:18;99800.80;;;31.50
65823;BMP180;52585;47.566;19.056;2022-08-18T13:46:46;99800.20;;;31.50
65823;BMP180;52585;47.566;19.056;2022-08-18T13:49:20;99799.80;;;31.50
65823;BMP180;52585;47.566;19.056;2022-08-18T13:51:50;99803.20;;;31.50
65823;BMP180;52585;47.566;19.056;2022-08-18T13:54:25;99802.60;;;31.50
65823;BMP180;52585;47.566;19.056;2022-08-18T13:56:53;99808.80;;;31.50
65823;BMP180;52585;47.566;19.056;2022-08-18T13:59:20;99810.80;;;31.50
65823;BMP180;52585;47.566;19.056;2022-08-18T14:01:47;99809.40;;;31.50
65823;BMP180;52585;47.566;19.056;2022-08-18T14:04:14;99806.40;;;31.50
65823;BMP180;52585;47.566;19.056;2022-08-18T14:06:41;99804.00;;;31.50
65823;BMP180;52585;47.566;19.056;2022-08-18T14:09:07;99806.60;;;31.50
65823;BMP180;52585;47.566;19.056;2022-08-18T14:11:35;99803.40;;;31.50
65823;BMP180;52585;47.566;19.056;2022-08-18T14:14:03;99799.80;;;31.50
65823;BMP180;52585;47.566;19.056;2022-08-18T14:16:31;99801.20;;;31.60
65823;BMP180;52585;47.566;19.056;2022-08-18T14:18:57;99807.60;;;31.60
65823;BMP180;52585;47.566;19.056;2022-08-18T14:21:49;99813.80;;;31.60
65823;BMP180;52585;47.566;19.056;2022-08-18T14:24:36;99814.40;;;31.60
65823;BMP180;52585;47.566;19.056;2022-08-18T14:27:35;99821.60;;;31.60
65823;BMP180;52585;47.566;19.056;2022-08-18T14:30:09;99819.40;;;31.60
65823;BMP180;52585;47.566;19.056;2022-08-18T14:32:38;99823.20;;;31.60
65823;BMP180;52585;47.566;19.056;2022-08-18T14:35:08;99820.60;;;31.60
65823;BMP180;52585;47.566;19.056;2022-08-18T14:37:34;99822.00;;;31.66
65823;BMP180;52585;47.566;19.056;2022-08-18T14:39:59;99816.40;;;31.70
65823;BMP180;52585;47.566;19.056;2022-08-18T14:42:25;99826.80;;;31.70
65823;BMP180;52585;47.566;19.056;2022-08-18T14:44:51;99828.60;;;31.70
65823;BMP180;52585;47.566;19.056;2022-08-18T14:47:17;99829.80;;;31.70
65823;BMP180;52585;47.566;19.056;2022-08-18T14:49:43;99822.40;;;31.70
65823;BMP180;52585;47.566;19.056;2022-08-18T14:52:11;99823.00;;;31.72
65823;BMP180;52585;47.566;19.056;2022-08-18T14:54:38;99822.20;;;31.80
65823;BMP180;52585;47.566;19.056;2022-08-18T14:57:05;99813.40;;;31.80
65823;BMP180;52585;47.566;19.056;2022-08-18T14:59:33;99814.60;;;31.80
65823;BMP180;52585;47.566;19.056;2022-08-18T15:01:59;99815.40;;;31.74
65823;BMP180;52585;47.566;19.056;2022-08-18T15:04:25;99813.40;;;31.78
65823;BMP180;52585;47.566;19.056;2022-08-18T15:06:52;99807.60;;;31.76
65823;BMP180;52585;47.566;19.056;2022-08-18T15:09:19;99802.80;;;31.78
65823;BMP180;52585;47.566;19.056;2022-08-18T15:11:44;99802.00;;;31.80
65823;BMP180;52585;47.566;19.056;2022-08-18T15:14:11;99800.20;;;31.80
65823;BMP180;52585;47.566;19.056;2022-08-18T15:16:36;99795.80;;;31.80
65823;BMP180;52585;47.566;19.056;2022-08-18T15:19:03;99792.60;;;31.80
65823;BMP180;52585;47.566;19.056;2022-08-18T15:21:29;99798.20;;;31.80
65823;BMP180;52585;47.566;19.056;2022-08-18T15:24:15;99805.00;;;31.80
65823;BMP180;52585;47.566;19.056;2022-08-18T15:27:00;99802.40;;;31.80
65823;BMP180;52585;47.566;19.056;2022-08-18T15:29:29;99798.80;;;31.80
65823;BMP180;52585;47.566;19.056;2022-08-18T15:31:57;99808.40;;;31.80
65823;BMP180;52585;47.566;19.056;2022-08-18T15:34:24;99820.60;;;31.80
65823;BMP180;52585;47.566;19.056;2022-08-18T15:36:49;99809.80;;;31.80
65823;BMP180;52585;47.566;19.056;2022-08-18T15:39:15;99815.00;;;31.80
65823;BMP180;52585;47.566;19.056;2022-08-18T15:41:44;99820.20;;;31.80
65823;BMP180;52585;47.566;19.056;2022-08-18T15:44:11;99822.80;;;31.80
65823;BMP180;52585;47.566;19.056;2022-08-18T15:46:39;99825.60;;;31.80
65823;BMP180;52585;47.566;19.056;2022-08-18T15:49:06;99826.80;;;31.80
65823;BMP180;52585;47.566;19.056;2022-08-18T15:51:38;99831.40;;;31.78
65823;BMP180;52585;47.566;19.056;2022-08-18T15:54:07;99829.40;;;31.76
65823;BMP180;52585;47.566;19.056;2022-08-18T15:56:33;99825.60;;;31.74
65823;BMP180;52585;47.566;19.056;2022-08-18T15:59:00;99818.80;;;31.76
65823;BMP180;52585;47.566;19.056;2022-08-18T16:01:35;99809.00;;;31.80
65823;BMP180;52585;47.566;19.056;2022-08-18T16:04:06;99803.60;;;31.74
65823;BMP180;52585;47.566;19.056;2022-08-18T16:06:33;99801.40;;;31.78
65823;BMP180;52585;47.566;19.056;2022-08-18T16:09:03;99804.00;;;31.70
65823;BMP180;52585;47.566;19.056;2022-08-18T16:11:29;99805.60;;;31.70
65823;BMP180;52585;47.566;19.056;2022-08-18T16:13:56;99808.00;;;31.70
65823;BMP180;52585;47.566;19.056;2022-08-18T16:16:25;99806.40;;;31.70
65823;BMP180;52585;47.566;19.056;2022-08-18T16:18:51;99807.40;;;31.70
65823;BMP180;52585;47.566;19.056;2022-08-18T16:21:22;99804.40;;;31.70
65823;BMP180;52585;47.566;19.056;2022-08-18T16:23:51;99800.80;;;31.70
65823;BMP180;52585;47.566;19.056;2022-08-18T16:26:20;99804.60;;;31.70
65823;BMP180;52585;47.566;19.056;2022-08-18T16:28:49;99809.60;;;31.66
65823;BMP180;52585;47.566;19.056;2022-08-18T16:31:18;99808.00;;;31.60
65823;BMP180;52585;47.566;19.056;2022-08-18T16:33:51;99806.20;;;31.60
65823;BMP180;52585;47.566;19.056;2022-08-18T16:36:17;99805.80;;;31.60
65823;BMP180;52585;47.566;19.056;2022-08-18T16:38:43;99808.20;;;31.60
65823;BMP180;52585;47.566;19.056;2022-08-18T16:41:13;99805.00;;;31.60
65823;BMP180;52585;47.566;19.056;2022-08-18T16:43:42;99799.20;;;31.50
65823;BMP180;52585;47.566;19.056;2022-08-18T16:46:14;99801.40;;;31.50
65823;BMP180;52585;47.566;19.056;2022-08-18T16:48:40;99802.40;;;31.50
65823;BMP180;52585;47.566;19.056;2022-08-18T16:51:05;99795.60;;;31.50
65823;BMP180;52585;47.566;19.056;2022-08-18T16:53:31;99796.00;;;31.50
65823;BMP180;52585;47.566;19.056;2022-08-18T16:55:57;99796.60;;;31.44
65823;BMP180;52585;47.566;19.056;2022-08-18T16:58:22;99794.80;;;31.40
65823;BMP180;52585;47.566;19.056;2022-08-18T17:01:07;99791.60;;;31.40
65823;BMP180;52585;47.566;19.056;2022-08-18T17:03:51;99789.80;;;31.40
65823;BMP180;52585;47.566;19.056;2022-08-18T17:06:37;99781.60;;;31.40
65823;BMP180;52585;47.566;19.056;2022-08-18T17:09:04;99774.00;;;31.30
65823;BMP180;52585;47.566;19.056;2022-08-18T17:11:30;99775.40;;;31.30